^^
Station Historical Data
Daily Summary for March 25, 2017 Units:  Metric    English   Both
« Previous Day
Next Day »
Daily Weekly Monthly Yearly Custom
  High: Low: Average:
Temperature: 30.5 °C 13.5 °C 22.6 °C
Dew Point: 7.5 °C -1.1 °C 3.6 °C
Humidity: 65% 13% 34%
Wind Speed: 19.5km/h 0km/h 3.2km/h
Wind Gust: 20.9km/h - -
Wind- - SSW
Pressure: 1017.2 hPa 1012.8 hPa -
Precipitation: 0 mm    
Historical Graphs
 
 
Tabular Data for March 25, 2017
Time Temperature Dew Point Pressure Wind Wind Speed Wind Gust Humidity Rainfall Rate (Hourly) solar Conditions
03:20 15.7 °C 7.2 °C 1015.8 hPa SW 4.7 km/h 8 km/h 57% 0 mm 0.0 W/m2
03:25 15.5 °C 7 °C 1015.8 hPa SW 6.4 km/h 9.7 km/h 57% 0 mm 0.0 W/m2
03:35 15.4 °C 6.9 °C 1015.5 hPa SW 9.7 km/h 9.7 km/h 57% 0 mm 0.0 W/m2
03:40 15.4 °C 6.9 °C 1015.5 hPa SW 11.1 km/h 12.9 km/h 57% 0 mm 0.0 W/m2
03:45 15.5 °C 6.8 °C 1015.5 hPa SW 13 km/h 13 km/h 56% 0 mm 0.0 W/m2
03:50 15.5 °C 6.8 °C 1015.5 hPa SW 9.7 km/h 11.3 km/h 56% 0 mm 0.0 W/m2
03:55 15.5 °C 7 °C 1015.5 hPa SW 7.9 km/h 11.3 km/h 57% 0 mm 0.0 W/m2
04:05 15.3 °C 7.1 °C 1015.5 hPa SW 7.9 km/h 9.7 km/h 58% 0 mm 0.0 W/m2
04:20 14.8 °C 7.1 °C 1015.5 hPa SW 6.4 km/h 8 km/h 60% 0 mm 0.0 W/m2
04:25 14.8 °C 7.1 °C 1015.5 hPa SW 9.7 km/h 12.9 km/h 60% 0 mm 0.0 W/m2
04:30 14.9 °C 7.2 °C 1015.5 hPa SW 11.1 km/h 11.3 km/h 60% 0 mm 0.0 W/m2
04:35 14.8 °C 7.1 °C 1015.5 hPa SW 9.7 km/h 11.3 km/h 60% 0 mm 0.0 W/m2
04:40 14.8 °C 7.4 °C 1015.5 hPa SW 13 km/h 13 km/h 61% 0 mm 0.0 W/m2
04:46 14.7 °C 7.5 °C 1015.5 hPa SSW 11.1 km/h 12.9 km/h 62% 0 mm 0.0 W/m2
04:55 14.8 °C 7.1 °C 1015.5 hPa SSW 11.1 km/h 14.5 km/h 60% 0 mm 0.0 W/m2
05:01 14.9 °C 7 °C 1015.5 hPa SSW 6.4 km/h 9.7 km/h 59% 0 mm 0.0 W/m2
05:16 14.8 °C 7.4 °C 1015.5 hPa Calm     61% 0 mm 0.0 W/m2
05:32 14.8 °C 6.9 °C 1015.8 hPa Calm     59% 0 mm 0.0 W/m2
05:37 14.7 °C 7 °C 1015.8 hPa Calm     60% 0 mm 0.0 W/m2
05:43 14.4 °C 7 °C 1015.8 hPa Calm     61% 0 mm 0.0 W/m2
05:48 14.2 °C 6.8 °C 1015.8 hPa Calm     61% 0 mm 0.0 W/m2
05:54 14 °C 6.8 °C 1015.8 hPa Calm     62% 0 mm 0.0 W/m2
05:59 13.9 °C 7 °C 1015.8 hPa Calm     63% 0 mm 0.0 W/m2
06:09 13.8 °C 7.1 °C 1016.1 hPa Calm     64% 0 mm 0.0 W/m2
06:14 13.7 °C 7.2 °C 1016.1 hPa Calm     65% 0 mm 0.0 W/m2
06:20 13.5 °C 7 °C 1015.8 hPa Calm     65% 0 mm 0.0 W/m2
06:25 13.5 °C 7 °C 1015.8 hPa Calm     65% 0 mm 0.0 W/m2
06:35 13.6 °C 7.1 °C 1016.1 hPa Calm     65% 0 mm 0.0 W/m2
06:40 13.6 °C 6.9 °C 1016.1 hPa Calm     64% 0 mm 0.0 W/m2
06:44 13.8 °C 6.9 °C 1016.1 hPa Calm     63% 0 mm 0.0 W/m2
06:51 13.9 °C 6.7 °C 1016.1 hPa Calm     62% 0 mm 0.0 W/m2
07:07 14.1 °C 6.9 °C 1016.1 hPa Calm     62% 0 mm 11.0 W/m2
09:21 19.4 °C 6.8 °C 1017.2 hPa SW 6.4 km/h 9.7 km/h 44% 0 mm 480.0 W/m2
09:26 19.9 °C 6.9 °C 1017.2 hPa SW 6.4 km/h 8 km/h 43% 0 mm 512.0 W/m2
09:36 20.3 °C 6.6 °C 1017.2 hPa Calm     41% 0 mm 547.0 W/m2
09:58 21.1 °C 6.6 °C 1017.2 hPa Calm     39% 0 mm 596.0 W/m2
10:02 21.7 °C 6 °C 1017.2 hPa Calm     36% 0 mm 626.0 W/m2
10:12 22.3 °C 5.2 °C 1017.2 hPa Calm     33% 0 mm 654.0 W/m2
10:22 23.2 °C 5.1 °C 1016.8 hPa Calm     31% 0 mm 682.0 W/m2
10:33 24 °C 4.4 °C 1016.8 hPa Calm     28% 0 mm 708.0 W/m2
10:48 24.8 °C 2.9 °C 1016.8 hPa Calm     24% 0 mm 729.0 W/m2
10:58 25 °C 3 °C 1016.8 hPa Calm     24% 0 mm 749.0 W/m2
11:06 25.2 °C 3.2 °C 1016.8 hPa WSW 1.4 km/h 4.8 km/h 24% 0 mm 768.0 W/m2
12:45 27.5 °C 2.5 °C 1015.8 hPa Calm     20% 0 mm 877.0 W/m2
13:00 27.8 °C 2.8 °C 1015.5 hPa Calm     20% 0 mm 879.0 W/m2
13:06 27.9 °C 2.1 °C 1015.1 hPa Calm     19% 0 mm 875.0 W/m2
13:23 28.3 °C 2.5 °C 1015.1 hPa Calm   6.4 km/h 19% 0 mm 870.0 W/m2
13:27 28.5 °C 3.4 °C 1015.1 hPa Calm     20% 0 mm 863.0 W/m2
13:42 29 °C 1.5 °C 1014.4 hPa Calm     17% 0 mm 853.0 W/m2
14:04 29.1 °C 1.6 °C 1014.4 hPa Calm     17% 0 mm 837.0 W/m2
14:19 29.7 °C 0.3 °C 1014.4 hPa Calm     15% 0 mm 814.0 W/m2
14:29 29.8 °C 1.3 °C 1014.1 hPa Calm   3.2 km/h 16% 0 mm 798.0 W/m2
14:44 29.3 °C 1.7 °C 1013.8 hPa Calm   3.2 km/h 17% 0 mm 772.0 W/m2
14:53 29.3 °C 1.7 °C 1013.8 hPa Calm   6.4 km/h 17% 0 mm 754.0 W/m2
15:13 29.3 °C 0.9 °C 1013.4 hPa Calm     16% 0 mm 708.0 W/m2
15:18 29.6 °C 0.2 °C 1013.4 hPa Calm   12.9 km/h 15% 0 mm 682.0 W/m2
15:26 29.3 °C 0 °C 1013.1 hPa Calm   4.8 km/h 15% 0 mm 668.0 W/m2
15:43 30.3 °C -0.2 °C 1013.1 hPa West 9.7 km/h 9.7 km/h 14% 0 mm 613.0 W/m2
15:58 30.1 °C -0.3 °C 1013.1 hPa West 3.2 km/h 4.8 km/h 14% 0 mm 582.0 W/m2
16:08 29.9 °C -0.5 °C 1013.1 hPa Calm   4.8 km/h 14% 0 mm 554.0 W/m2
16:13 30 °C 0.5 °C 1013.1 hPa Calm     15% 0 mm 526.0 W/m2
16:27 30.1 °C -0.3 °C 1012.8 hPa West 1.4 km/h 4.8 km/h 14% 0 mm 490.0 W/m2
17:11 30.4 °C -0.1 °C 1012.8 hPa Calm     14% 0 mm 332.0 W/m2
17:17 30.4 °C -0.1 °C 1012.8 hPa Calm     14% 0 mm 315.0 W/m2
17:27 30.4 °C -1.1 °C 1012.8 hPa Calm     13% 0 mm 278.0 W/m2
17:36 30.3 °C -0.2 °C 1012.8 hPa Calm     14% 0 mm 237.0 W/m2
17:50 30.4 °C -0.1 °C 1012.8 hPa Calm     14% 0 mm 171.0 W/m2
18:00 30.5 °C -1 °C 1012.8 hPa Calm     13% 0 mm 125.0 W/m2
18:15 30.5 °C -1 °C 1012.8 hPa Calm     13% 0 mm 65.0 W/m2
18:38 30.1 °C -0.3 °C 1012.8 hPa Calm     14% 0 mm 19.0 W/m2
18:51 29.4 °C -0.9 °C 1012.8 hPa Calm     14% 0 mm 7.0 W/m2
18:57 28.8 °C 0.5 °C 1012.8 hPa Calm     16% 0 mm 0.0 W/m2
19:12 27.7 °C 1.2 °C 1012.8 hPa Calm     18% 0 mm 0.0 W/m2
19:30 27.2 °C 0 °C 1012.8 hPa Calm     17% 0 mm 0.0 W/m2
19:34 26.9 °C 0.6 °C 1013.1 hPa Calm     18% 0 mm 0.0 W/m2
19:56 26.6 °C 1.1 °C 1013.1 hPa Calm     19% 0 mm 0.0 W/m2
20:05 26.4 °C 1.6 °C 1013.4 hPa Calm     20% 0 mm 0.0 W/m2
20:11 26.2 °C 2.1 °C 1013.4 hPa Calm     21% 0 mm 0.0 W/m2
20:28 25.9 °C 1.9 °C 1013.4 hPa Calm     21% 0 mm 0.0 W/m2
20:42 25.9 °C 2.6 °C 1013.4 hPa Calm     22% 0 mm 0.0 W/m2
20:54 25.9 °C 1.9 °C 1013.4 hPa Calm     21% 0 mm 0.0 W/m2
21:09 25.7 °C 2.4 °C 1013.4 hPa Calm     22% 0 mm 0.0 W/m2
21:23 25 °C 3 °C 1013.8 hPa Calm     24% 0 mm 0.0 W/m2
21:36 24.2 °C 3.5 °C 1013.8 hPa Calm     26% 0 mm 0.0 W/m2
21:46 23.2 °C 4.2 °C 1013.8 hPa Calm     29% 0 mm 0.0 W/m2
21:51 22.9 °C 3.9 °C 1013.8 hPa Calm     29% 0 mm 0.0 W/m2
21:56 22.7 °C 3.2 °C 1013.8 hPa Calm     28% 0 mm 0.0 W/m2
22:01 22.7 °C 4.2 °C 1013.8 hPa Calm     30% 0 mm 0.0 W/m2
22:11 22.9 °C 2.4 °C 1013.8 hPa Calm     26% 0 mm 0.0 W/m2
22:21 23.6 °C 1.8 °C 1013.8 hPa SW 7.9 km/h 12.9 km/h 24% 0 mm 0.0 W/m2
22:26 23.9 °C 1.5 °C 1013.8 hPa SW 13 km/h 14.5 km/h 23% 0 mm 0.0 W/m2
22:31 24 °C 1.6 °C 1013.8 hPa SSW 11.1 km/h 11.3 km/h 23% 0 mm 0.0 W/m2
22:36 24 °C 1.6 °C 1014.1 hPa SSW 9.7 km/h 11.3 km/h 23% 0 mm 0.0 W/m2
22:42 24 °C 1.6 °C 1014.1 hPa Calm   11.3 km/h 23% 0 mm 0.0 W/m2
22:52 23.9 °C 1.5 °C 1014.1 hPa SSW 9.7 km/h 14.5 km/h 23% 0 mm 0.0 W/m2
23:12 24.1 °C 2.3 °C 1014.1 hPa SSW 11.1 km/h 16.1 km/h 24% 0 mm 0.0 W/m2
23:27 23.8 °C 2 °C 1013.8 hPa South 14.3 km/h 17.7 km/h 24% 0 mm 0.0 W/m2
23:32 23.8 °C 2 °C 1013.8 hPa South 13 km/h 20.9 km/h 24% 0 mm 0.0 W/m2
23:42 23.8 °C 2 °C 1013.8 hPa SSE 11.1 km/h 17.7 km/h 24% 0 mm 0.0 W/m2
23:47 23.7 °C 1.9 °C 1013.8 hPa SSE 14.3 km/h 20.9 km/h 24% 0 mm 0.0 W/m2
23:52 23.8 °C 2 °C 1013.8 hPa SE 19.5 km/h 20.9 km/h 24% 0 mm 0.0 W/m2
23:57 23.7 °C 1.9 °C 1013.8 hPa SE 11.1 km/h 16.1 km/h 24% 0 mm 0.0 W/m2
Canyon Roadhouse, Fishriver Canyon, Namibia
Compliments of Weather Underground - 2.25 mb